| time (UTC) | temp C | wind direction | speed KPH | gust KPH | rain 1hr cm | rain 24hr cm | rain mn cm | humidity % | barometer mb |
| 20260901145448 | 31 | 278 | 3.2 | 3.2 | 0.00 | 0.00 | 0.00 | 55 | |
| 20260901142447 | 30 | 252 | 3.2 | 3.2 | 0.00 | 0.00 | 0.00 | 59 | |
| 20260901135446 | 28 | 190 | 1.6 | 1.6 | 0.00 | 0.00 | 0.00 | 68 | |
| 20260901132445 | 26 | 360 | 0.0 | 0.0 | 0.00 | 0.00 | 0.00 | 79 | |
| 20260901125444 | 23 | 360 | 0.0 | 0.0 | 0.00 | 0.00 | 0.00 | 91 | |
| 20260901122443 | 21 | 360 | 0.0 | 0.0 | 0.00 | 0.00 | 0.00 | 94 | |
| 20260901115442 | 21 | 360 | 0.0 | 0.0 | 0.00 | 0.00 | 0.00 | 94 | |
| 20260901112441 | 21 | 360 | 0.0 | 0.0 | 0.00 | 0.00 | 0.00 | 94 | |
| 20260901105440 | 21 | 360 | 0.0 | 0.0 | 0.00 | 0.00 | 0.00 | 94 | |
| 20260901102439 | 21 | 360 | 0.0 | 0.0 | 0.00 | 0.00 | 0.00 | 94 | |
| 20260901095438 | 21 | 360 | 0.0 | 0.0 | 0.00 | 0.00 | 0.00 | 94 | |
| 20260901092437 | 21 | 360 | 0.0 | 0.0 | 0.00 | 0.00 | 0.00 | 94 | |
| 20260901085436 | 22 | 360 | 0.0 | 0.0 | 0.00 | 0.00 | 0.00 | 92 | |
| 20260901082435 | 21 | 360 | 0.0 | 0.0 | 0.00 | 0.00 | 0.00 | 92 | |
| 20260901075434 | 22 | 360 | 0.0 | 0.0 | 0.00 | 0.00 | 0.00 | 92 | |
| 20260901072433 | 22 | 360 | 0.0 | 0.0 | 0.00 | 0.00 | 0.00 | 91 | |
| 20260901065432 | 23 | 360 | 0.0 | 0.0 | 0.00 | 0.00 | 0.00 | 90 | |
| 20260901062431 | 23 | 360 | 0.0 | 0.0 | 0.00 | 0.00 | 0.00 | 89 | |
| 20260901055430 | 23 | 360 | 0.0 | 0.0 | 0.00 | 0.00 | 0.00 | 88 | |
| 20260901052429 | 23 | 360 | 0.0 | 0.0 | 0.00 | 0.00 | 0.00 | 87 | |
| 20260901045428 | 23 | 360 | 0.0 | 0.0 | 0.00 | 0.00 | 0.00 | 84 | |
| 20260901042427 | 25 | 360 | 0.0 | 0.0 | 0.00 | 0.00 | 0.00 | 82 | |
| 20260901035426 | 26 | 360 | 0.0 | 0.0 | 0.00 | 0.00 | 0.00 | 82 | |
| 20260901032425 | 25 | 360 | 0.0 | 0.0 | 0.00 | 0.00 | 0.00 | 81 | |
| 20260901025424 | 25 | 360 | 0.0 | 0.0 | 0.00 | 0.00 | 0.00 | 78 | |
| 20260901022423 | 26 | 360 | 0.0 | 0.0 | 0.00 | 0.00 | 0.00 | 76 | |
| 20260901015422 | 28 | 360 | 0.0 | 0.0 | 0.00 | 0.00 | 0.00 | 64 | |
| 20260901012421 | 28 | 360 | 0.0 | 0.0 | 0.00 | 0.00 | 0.00 | 64 | |
| 20260901005420 | 28 | 360 | 0.0 | 0.0 | 0.00 | 0.00 | 0.00 | 64 | |
| 20260901002419 | 31 | 360 | 0.0 | 0.0 | 0.00 | 0.00 | 0.00 | 56 | |
| 20260831235418 | 32 | 360 | 0.0 | 0.0 | 0.00 | 0.00 | 0.00 | 51 | |
| 20260831232417 | 31 | 360 | 0.0 | 0.0 | 0.00 | 0.00 | 0.00 | 100 | |
| 20260831225416 | 31 | 360 | 0.0 | 0.0 | 0.00 | 0.00 | 0.00 | 54 | |
| 20260831222415 | 31 | 360 | 0.0 | 0.0 | 0.00 | 0.00 | 0.00 | 53 | |
| 20260831215414 | 32 | 360 | 0.0 | 0.0 | 0.00 | 0.00 | 0.00 | 49 | |
| 20260831212413 | 33 | 191 | 1.6 | 3.2 | 0.00 | 0.00 | 0.00 | 45 | |
| 20260831205412 | 35 | 253 | 1.6 | 3.2 | 0.00 | 0.00 | 0.00 | 39 | |
| 20260831202411 | 34 | 326 | 3.2 | 3.2 | 0.00 | 0.00 | 0.00 | 43 | |
| 20260831195410 | 33 | 269 | 4.8 | 4.8 | 0.00 | 0.00 | 0.00 | 46 | |
| 20260831192409 | 33 | 287 | 6.4 | 6.4 | 0.00 | 0.00 | 0.00 | 44 | |
| 20260831185408 | 32 | 284 | 4.8 | 4.8 | 0.00 | 0.00 | 0.00 | 48 | |
| 20260831182407 | 32 | 319 | 4.8 | 6.4 | 0.00 | 0.00 | 0.00 | 49 | |
| 20260831175406 | 32 | 335 | 4.8 | 4.8 | 0.00 | 0.00 | 0.00 | 50 | |
| 20260831172405 | 31 | 328 | 6.4 | 6.4 | 0.00 | 0.00 | 0.00 | 56 | |
| 20260831165404 | 31 | 284 | 8.0 | 8.0 | 0.00 | 0.00 | 0.00 | 52 | |
| 20260831162403 | 31 | 259 | 3.2 | 4.8 | 0.00 | 0.00 | 0.00 | 54 | |
| 20260831155402 | 31 | 298 | 4.8 | 4.8 | 0.00 | 0.00 | 0.00 | 57 | |
| 20260831152401 | 30 | 127 | 3.2 | 3.2 | 0.00 | 0.00 | 0.00 | 60 |